sensor_id;sensor_type;location;lat;lon;timestamp;P1;durP1;ratioP1;P2;durP2;ratioP2
68455;SDS011;55437;55.046;38.838;2023-01-24T00:00:27;28.05;;;10.20;;
68455;SDS011;55437;55.046;38.838;2023-01-24T00:02:52;29.25;;;9.40;;
68455;SDS011;55437;55.046;38.838;2023-01-24T00:05:19;26.88;;;11.43;;
68455;SDS011;55437;55.046;38.838;2023-01-24T00:07:44;25.02;;;9.77;;
68455;SDS011;55437;55.046;38.838;2023-01-24T00:10:11;25.33;;;9.18;;
68455;SDS011;55437;55.046;38.838;2023-01-24T00:12:38;30.52;;;10.65;;
68455;SDS011;55437;55.046;38.838;2023-01-24T00:15:04;25.95;;;9.52;;
68455;SDS011;55437;55.046;38.838;2023-01-24T00:17:30;33.10;;;10.73;;
68455;SDS011;55437;55.046;38.838;2023-01-24T00:19:56;25.75;;;9.00;;
68455;SDS011;55437;55.046;38.838;2023-01-24T00:22:21;28.05;;;8.93;;
68455;SDS011;55437;55.046;38.838;2023-01-24T00:24:47;26.63;;;10.05;;
68455;SDS011;55437;55.046;38.838;2023-01-24T00:27:14;27.23;;;10.25;;
68455;SDS011;55437;55.046;38.838;2023-01-24T00:29:41;27.02;;;9.82;;
68455;SDS011;55437;55.046;38.838;2023-01-24T00:32:06;31.67;;;10.45;;
68455;SDS011;55437;55.046;38.838;2023-01-24T00:34:32;25.10;;;9.52;;
68455;SDS011;55437;55.046;38.838;2023-01-24T00:36:58;33.17;;;9.65;;
68455;SDS011;55437;55.046;38.838;2023-01-24T00:39:24;28.67;;;10.35;;
68455;SDS011;55437;55.046;38.838;2023-01-24T00:41:50;22.60;;;8.93;;
68455;SDS011;55437;55.046;38.838;2023-01-24T00:44:15;27.15;;;10.52;;
68455;SDS011;55437;55.046;38.838;2023-01-24T00:46:41;28.52;;;10.02;;
68455;SDS011;55437;55.046;38.838;2023-01-24T00:49:07;25.27;;;9.80;;
68455;SDS011;55437;55.046;38.838;2023-01-24T00:51:33;26.55;;;10.07;;
68455;SDS011;55437;55.046;38.838;2023-01-24T00:53:59;27.48;;;10.05;;
68455;SDS011;55437;55.046;38.838;2023-01-24T00:56:25;31.13;;;10.73;;
68455;SDS011;55437;55.046;38.838;2023-01-24T00:58:51;24.30;;;9.75;;
68455;SDS011;55437;55.046;38.838;2023-01-24T01:01:16;29.92;;;10.93;;
68455;SDS011;55437;55.046;38.838;2023-01-24T01:03:43;29.83;;;10.68;;
68455;SDS011;55437;55.046;38.838;2023-01-24T01:06:13;27.48;;;11.75;;
68455;SDS011;55437;55.046;38.838;2023-01-24T01:08:41;34.78;;;12.10;;
68455;SDS011;55437;55.046;38.838;2023-01-24T01:11:08;30.40;;;11.23;;
68455;SDS011;55437;55.046;38.838;2023-01-24T01:13:34;30.52;;;11.05;;
68455;SDS011;55437;55.046;38.838;2023-01-24T01:16:00;34.65;;;11.70;;
68455;SDS011;55437;55.046;38.838;2023-01-24T01:18:27;40.30;;;11.40;;
68455;SDS011;55437;55.046;38.838;2023-01-24T01:20:53;28.48;;;9.90;;
68455;SDS011;55437;55.046;38.838;2023-01-24T01:23:19;31.98;;;10.95;;
68455;SDS011;55437;55.046;38.838;2023-01-24T01:25:45;32.38;;;10.65;;
68455;SDS011;55437;55.046;38.838;2023-01-24T01:28:11;33.40;;;12.82;;
68455;SDS011;55437;55.046;38.838;2023-01-24T01:30:37;38.38;;;13.98;;
68455;SDS011;55437;55.046;38.838;2023-01-24T01:33:02;36.00;;;13.40;;
68455;SDS011;55437;55.046;38.838;2023-01-24T01:35:28;31.45;;;12.38;;
68455;SDS011;55437;55.046;38.838;2023-01-24T01:37:53;41.05;;;12.75;;
68455;SDS011;55437;55.046;38.838;2023-01-24T01:40:19;35.08;;;11.48;;
68455;SDS011;55437;55.046;38.838;2023-01-24T01:48:29;32.63;;;11.73;;
68455;SDS011;55437;55.046;38.838;2023-01-24T01:51:19;36.92;;;12.73;;
68455;SDS011;55437;55.046;38.838;2023-01-24T01:53:52;31.85;;;13.10;;
68455;SDS011;55437;55.046;38.838;2023-01-24T01:56:44;36.42;;;12.20;;
68455;SDS011;55437;55.046;38.838;2023-01-24T01:59:18;36.08;;;12.38;;
68455;SDS011;55437;55.046;38.838;2023-01-24T02:01:48;30.35;;;11.13;;
68455;SDS011;55437;55.046;38.838;2023-01-24T02:04:17;40.38;;;12.38;;
68455;SDS011;55437;55.046;38.838;2023-01-24T02:09:25;51.03;;;15.85;;
68455;SDS011;55437;55.046;38.838;2023-01-24T02:11:54;44.60;;;15.10;;
68455;SDS011;55437;55.046;38.838;2023-01-24T02:17:08;38.13;;;13.73;;
68455;SDS011;55437;55.046;38.838;2023-01-24T02:22:02;52.90;;;17.85;;
68455;SDS011;55437;55.046;38.838;2023-01-24T02:24:40;52.10;;;17.35;;
68455;SDS011;55437;55.046;38.838;2023-01-24T02:27:10;52.30;;;16.35;;
68455;SDS011;55437;55.046;38.838;2023-01-24T02:29:36;47.58;;;17.30;;
68455;SDS011;55437;55.046;38.838;2023-01-24T02:32:02;46.53;;;15.85;;
68455;SDS011;55437;55.046;38.838;2023-01-24T02:34:32;47.10;;;16.20;;
68455;SDS011;55437;55.046;38.838;2023-01-24T02:36:58;45.47;;;15.88;;
68455;SDS011;55437;55.046;38.838;2023-01-24T02:39:29;44.28;;;15.88;;
68455;SDS011;55437;55.046;38.838;2023-01-24T02:42:02;46.50;;;16.70;;
68455;SDS011;55437;55.046;38.838;2023-01-24T02:47:26;49.22;;;16.75;;
68455;SDS011;55437;55.046;38.838;2023-01-24T02:50:00;47.00;;;15.45;;
68455;SDS011;55437;55.046;38.838;2023-01-24T02:52:28;45.28;;;15.65;;
68455;SDS011;55437;55.046;38.838;2023-01-24T02:55:12;46.33;;;15.82;;
68455;SDS011;55437;55.046;38.838;2023-01-24T02:57:38;51.67;;;16.45;;
68455;SDS011;55437;55.046;38.838;2023-01-24T03:00:22;47.83;;;17.25;;
68455;SDS011;55437;55.046;38.838;2023-01-24T03:02:48;61.42;;;16.77;;
68455;SDS011;55437;55.046;38.838;2023-01-24T03:05:14;58.30;;;17.58;;
68455;SDS011;55437;55.046;38.838;2023-01-24T03:07:41;55.63;;;18.58;;
68455;SDS011;55437;55.046;38.838;2023-01-24T03:10:11;57.25;;;18.70;;
68455;SDS011;55437;55.046;38.838;2023-01-24T03:12:39;53.75;;;18.98;;
68455;SDS011;55437;55.046;38.838;2023-01-24T03:15:23;59.10;;;20.23;;
68455;SDS011;55437;55.046;38.838;2023-01-24T03:18:08;60.15;;;17.83;;
68455;SDS011;55437;55.046;38.838;2023-01-24T03:20:52;57.90;;;17.65;;
68455;SDS011;55437;55.046;38.838;2023-01-24T03:23:36;54.63;;;17.92;;
68455;SDS011;55437;55.046;38.838;2023-01-24T03:26:21;61.22;;;20.30;;
68455;SDS011;55437;55.046;38.838;2023-01-24T03:29:07;56.10;;;18.55;;
68455;SDS011;55437;55.046;38.838;2023-01-24T03:31:52;65.28;;;18.10;;
68455;SDS011;55437;55.046;38.838;2023-01-24T03:34:36;57.72;;;18.48;;
68455;SDS011;55437;55.046;38.838;2023-01-24T03:37:12;57.03;;;17.45;;
68455;SDS011;55437;55.046;38.838;2023-01-24T03:39:39;63.30;;;20.17;;
68455;SDS011;55437;55.046;38.838;2023-01-24T03:42:26;60.40;;;19.65;;
68455;SDS011;55437;55.046;38.838;2023-01-24T03:44:53;57.45;;;17.30;;
68455;SDS011;55437;55.046;38.838;2023-01-24T03:47:19;60.83;;;17.83;;
68455;SDS011;55437;55.046;38.838;2023-01-24T03:49:44;69.72;;;18.92;;
68455;SDS011;55437;55.046;38.838;2023-01-24T03:52:30;59.97;;;18.05;;
68455;SDS011;55437;55.046;38.838;2023-01-24T03:54:59;68.13;;;19.08;;
68455;SDS011;55437;55.046;38.838;2023-01-24T03:57:27;66.70;;;20.60;;
68455;SDS011;55437;55.046;38.838;2023-01-24T03:59:57;63.72;;;19.35;;
68455;SDS011;55437;55.046;38.838;2023-01-24T04:02:23;70.78;;;20.15;;
68455;SDS011;55437;55.046;38.838;2023-01-24T04:04:49;74.20;;;20.55;;
68455;SDS011;55437;55.046;38.838;2023-01-24T04:07:45;65.18;;;20.55;;
68455;SDS011;55437;55.046;38.838;2023-01-24T04:10:14;65.90;;;21.25;;
68455;SDS011;55437;55.046;38.838;2023-01-24T04:12:45;79.75;;;22.13;;
68455;SDS011;55437;55.046;38.838;2023-01-24T04:18:24;76.65;;;20.95;;
68455;SDS011;55437;55.046;38.838;2023-01-24T04:20:50;71.25;;;19.92;;
68455;SDS011;55437;55.046;38.838;2023-01-24T04:23:17;67.25;;;20.75;;
68455;SDS011;55437;55.046;38.838;2023-01-24T04:25:48;67.55;;;21.85;;
68455;SDS011;55437;55.046;38.838;2023-01-24T04:28:17;71.97;;;21.42;;
68455;SDS011;55437;55.046;38.838;2023-01-24T04:30:42;71.50;;;23.08;;
68455;SDS011;55437;55.046;38.838;2023-01-24T04:33:21;68.63;;;20.70;;
68455;SDS011;55437;55.046;38.838;2023-01-24T04:35:47;69.78;;;20.05;;
68455;SDS011;55437;55.046;38.838;2023-01-24T04:38:13;69.90;;;21.35;;
68455;SDS011;55437;55.046;38.838;2023-01-24T04:40:58;68.10;;;22.15;;
68455;SDS011;55437;55.046;38.838;2023-01-24T04:43:26;65.43;;;20.77;;
68455;SDS011;55437;55.046;38.838;2023-01-24T04:45:56;76.32;;;21.63;;
68455;SDS011;55437;55.046;38.838;2023-01-24T04:48:25;72.00;;;21.38;;
68455;SDS011;55437;55.046;38.838;2023-01-24T04:50:51;80.10;;;20.98;;
68455;SDS011;55437;55.046;38.838;2023-01-24T04:53:17;80.25;;;23.67;;
68455;SDS011;55437;55.046;38.838;2023-01-24T04:55:44;73.10;;;20.95;;
68455;SDS011;55437;55.046;38.838;2023-01-24T04:58:09;81.85;;;23.75;;
68455;SDS011;55437;55.046;38.838;2023-01-24T05:00:35;73.03;;;21.98;;
68455;SDS011;55437;55.046;38.838;2023-01-24T05:03:01;80.05;;;22.70;;
68455;SDS011;55437;55.046;38.838;2023-01-24T05:05:27;75.35;;;21.23;;
68455;SDS011;55437;55.046;38.838;2023-01-24T05:07:53;67.80;;;20.65;;
68455;SDS011;55437;55.046;38.838;2023-01-24T05:10:20;80.38;;;22.13;;
68455;SDS011;55437;55.046;38.838;2023-01-24T05:12:48;74.60;;;20.80;;
68455;SDS011;55437;55.046;38.838;2023-01-24T05:15:18;62.25;;;20.25;;
68455;SDS011;55437;55.046;38.838;2023-01-24T05:17:47;69.68;;;17.98;;
68455;SDS011;55437;55.046;38.838;2023-01-24T05:20:16;68.80;;;20.60;;
68455;SDS011;55437;55.046;38.838;2023-01-24T05:22:42;68.20;;;20.98;;
68455;SDS011;55437;55.046;38.838;2023-01-24T05:25:13;68.40;;;19.83;;
68455;SDS011;55437;55.046;38.838;2023-01-24T05:27:44;70.95;;;20.48;;
68455;SDS011;55437;55.046;38.838;2023-01-24T05:30:11;68.32;;;20.30;;
68455;SDS011;55437;55.046;38.838;2023-01-24T05:32:37;75.40;;;22.13;;
68455;SDS011;55437;55.046;38.838;2023-01-24T05:35:04;66.88;;;22.23;;
68455;SDS011;55437;55.046;38.838;2023-01-24T05:37:30;70.28;;;20.50;;
68455;SDS011;55437;55.046;38.838;2023-01-24T05:39:56;68.88;;;22.27;;
68455;SDS011;55437;55.046;38.838;2023-01-24T05:42:22;59.92;;;18.33;;
68455;SDS011;55437;55.046;38.838;2023-01-24T05:44:50;61.47;;;18.50;;
68455;SDS011;55437;55.046;38.838;2023-01-24T05:47:15;64.72;;;19.27;;
68455;SDS011;55437;55.046;38.838;2023-01-24T05:49:44;65.13;;;18.77;;
68455;SDS011;55437;55.046;38.838;2023-01-24T05:52:09;58.00;;;19.67;;
68455;SDS011;55437;55.046;38.838;2023-01-24T05:54:47;63.55;;;20.33;;
68455;SDS011;55437;55.046;38.838;2023-01-24T05:57:32;64.30;;;18.92;;
68455;SDS011;55437;55.046;38.838;2023-01-24T06:00:14;63.72;;;18.67;;
68455;SDS011;55437;55.046;38.838;2023-01-24T06:02:43;56.05;;;18.20;;
68455;SDS011;55437;55.046;38.838;2023-01-24T06:05:09;57.00;;;17.65;;
68455;SDS011;55437;55.046;38.838;2023-01-24T06:07:35;72.35;;;19.95;;
68455;SDS011;55437;55.046;38.838;2023-01-24T06:10:01;58.33;;;20.45;;
68455;SDS011;55437;55.046;38.838;2023-01-24T06:12:36;54.45;;;18.92;;
68455;SDS011;55437;55.046;38.838;2023-01-24T06:15:02;57.53;;;17.65;;
68455;SDS011;55437;55.046;38.838;2023-01-24T06:17:28;47.80;;;16.30;;
68455;SDS011;55437;55.046;38.838;2023-01-24T06:19:54;51.85;;;17.67;;
68455;SDS011;55437;55.046;38.838;2023-01-24T06:22:24;50.65;;;15.20;;
68455;SDS011;55437;55.046;38.838;2023-01-24T06:24:55;52.65;;;16.15;;
68455;SDS011;55437;55.046;38.838;2023-01-24T06:27:28;49.70;;;16.98;;
68455;SDS011;55437;55.046;38.838;2023-01-24T06:29:54;48.08;;;15.93;;
68455;SDS011;55437;55.046;38.838;2023-01-24T06:32:34;46.00;;;15.45;;
68455;SDS011;55437;55.046;38.838;2023-01-24T06:38:18;61.30;;;18.25;;
68455;SDS011;55437;55.046;38.838;2023-01-24T06:40:46;56.83;;;17.73;;
68455;SDS011;55437;55.046;38.838;2023-01-24T06:43:14;47.47;;;16.50;;
68455;SDS011;55437;55.046;38.838;2023-01-24T06:45:40;54.47;;;16.00;;
68455;SDS011;55437;55.046;38.838;2023-01-24T06:48:06;52.25;;;17.02;;
68455;SDS011;55437;55.046;38.838;2023-01-24T06:50:31;58.75;;;16.83;;
68455;SDS011;55437;55.046;38.838;2023-01-24T06:52:58;52.58;;;17.33;;
68455;SDS011;55437;55.046;38.838;2023-01-24T06:55:24;52.50;;;16.63;;
68455;SDS011;55437;55.046;38.838;2023-01-24T06:57:56;50.33;;;16.23;;
68455;SDS011;55437;55.046;38.838;2023-01-24T07:00:23;53.30;;;16.48;;
68455;SDS011;55437;55.046;38.838;2023-01-24T07:02:56;46.55;;;15.70;;
68455;SDS011;55437;55.046;38.838;2023-01-24T07:05:22;52.35;;;16.10;;
68455;SDS011;55437;55.046;38.838;2023-01-24T07:07:48;50.20;;;16.65;;
68455;SDS011;55437;55.046;38.838;2023-01-24T07:10:14;53.92;;;18.17;;
68455;SDS011;55437;55.046;38.838;2023-01-24T07:12:42;51.08;;;16.80;;
68455;SDS011;55437;55.046;38.838;2023-01-24T07:15:08;50.05;;;17.60;;
68455;SDS011;55437;55.046;38.838;2023-01-24T07:17:34;50.20;;;16.98;;
68455;SDS011;55437;55.046;38.838;2023-01-24T07:20:00;43.85;;;14.98;;
68455;SDS011;55437;55.046;38.838;2023-01-24T07:22:26;53.60;;;16.75;;
68455;SDS011;55437;55.046;38.838;2023-01-24T07:24:52;51.92;;;15.48;;
68455;SDS011;55437;55.046;38.838;2023-01-24T07:27:18;47.65;;;17.33;;
68455;SDS011;55437;55.046;38.838;2023-01-24T07:29:44;49.20;;;16.25;;
68455;SDS011;55437;55.046;38.838;2023-01-24T07:32:10;52.17;;;16.63;;
68455;SDS011;55437;55.046;38.838;2023-01-24T07:34:36;59.60;;;18.27;;
68455;SDS011;55437;55.046;38.838;2023-01-24T07:37:01;48.03;;;17.55;;
68455;SDS011;55437;55.046;38.838;2023-01-24T07:39:27;49.38;;;16.52;;
68455;SDS011;55437;55.046;38.838;2023-01-24T07:41:56;49.38;;;15.77;;
68455;SDS011;55437;55.046;38.838;2023-01-24T07:44:22;47.45;;;15.13;;
68455;SDS011;55437;55.046;38.838;2023-01-24T07:46:47;49.58;;;17.25;;
68455;SDS011;55437;55.046;38.838;2023-01-24T07:49:13;50.63;;;18.63;;
68455;SDS011;55437;55.046;38.838;2023-01-24T07:51:38;50.30;;;17.15;;
68455;SDS011;55437;55.046;38.838;2023-01-24T08:02:41;44.80;;;15.70;;
68455;SDS011;55437;55.046;38.838;2023-01-24T08:05:07;46.58;;;16.27;;
68455;SDS011;55437;55.046;38.838;2023-01-24T08:07:33;45.47;;;15.85;;
68455;SDS011;55437;55.046;38.838;2023-01-24T08:10:00;49.28;;;16.25;;
68455;SDS011;55437;55.046;38.838;2023-01-24T08:12:26;47.25;;;16.30;;
68455;SDS011;55437;55.046;38.838;2023-01-24T08:14:51;49.95;;;18.73;;
68455;SDS011;55437;55.046;38.838;2023-01-24T08:17:17;49.55;;;16.27;;
68455;SDS011;55437;55.046;38.838;2023-01-24T08:19:43;47.25;;;15.35;;
68455;SDS011;55437;55.046;38.838;2023-01-24T08:22:09;45.90;;;15.73;;
68455;SDS011;55437;55.046;38.838;2023-01-24T08:24:34;47.28;;;16.85;;
68455;SDS011;55437;55.046;38.838;2023-01-24T08:27:00;48.50;;;15.85;;
68455;SDS011;55437;55.046;38.838;2023-01-24T08:29:27;47.10;;;15.48;;
68455;SDS011;55437;55.046;38.838;2023-01-24T08:31:53;45.80;;;15.48;;
68455;SDS011;55437;55.046;38.838;2023-01-24T08:34:19;45.80;;;16.50;;
68455;SDS011;55437;55.046;38.838;2023-01-24T08:36:45;42.67;;;15.75;;
68455;SDS011;55437;55.046;38.838;2023-01-24T08:39:10;44.22;;;15.13;;
68455;SDS011;55437;55.046;38.838;2023-01-24T08:41:36;49.88;;;17.13;;
68455;SDS011;55437;55.046;38.838;2023-01-24T08:44:03;50.25;;;17.38;;
68455;SDS011;55437;55.046;38.838;2023-01-24T08:46:30;49.83;;;15.75;;
68455;SDS011;55437;55.046;38.838;2023-01-24T08:48:56;46.20;;;16.10;;
68455;SDS011;55437;55.046;38.838;2023-01-24T08:51:22;48.97;;;17.60;;
68455;SDS011;55437;55.046;38.838;2023-01-24T08:53:48;47.95;;;17.20;;
68455;SDS011;55437;55.046;38.838;2023-01-24T08:56:14;45.67;;;15.27;;
68455;SDS011;55437;55.046;38.838;2023-01-24T08:58:39;43.35;;;16.40;;
68455;SDS011;55437;55.046;38.838;2023-01-24T09:01:06;44.15;;;15.48;;
68455;SDS011;55437;55.046;38.838;2023-01-24T09:03:32;53.03;;;16.05;;
68455;SDS011;55437;55.046;38.838;2023-01-24T09:05:57;45.55;;;16.60;;
68455;SDS011;55437;55.046;38.838;2023-01-24T09:08:24;46.85;;;16.02;;
68455;SDS011;55437;55.046;38.838;2023-01-24T09:10:50;45.22;;;16.15;;
68455;SDS011;55437;55.046;38.838;2023-01-24T09:13:15;45.40;;;15.68;;
68455;SDS011;55437;55.046;38.838;2023-01-24T09:15:41;40.53;;;14.48;;
68455;SDS011;55437;55.046;38.838;2023-01-24T09:18:09;46.75;;;16.40;;
68455;SDS011;55437;55.046;38.838;2023-01-24T09:20:38;42.58;;;15.95;;
68455;SDS011;55437;55.046;38.838;2023-01-24T09:23:09;44.83;;;15.73;;
68455;SDS011;55437;55.046;38.838;2023-01-24T09:25:48;46.00;;;16.08;;
68455;SDS011;55437;55.046;38.838;2023-01-24T09:28:15;46.40;;;17.02;;
68455;SDS011;55437;55.046;38.838;2023-01-24T09:30:43;51.10;;;15.93;;
68455;SDS011;55437;55.046;38.838;2023-01-24T09:33:09;45.78;;;15.60;;
68455;SDS011;55437;55.046;38.838;2023-01-24T09:35:35;49.75;;;14.93;;
68455;SDS011;55437;55.046;38.838;2023-01-24T09:38:00;40.45;;;14.70;;
68455;SDS011;55437;55.046;38.838;2023-01-24T09:40:31;42.60;;;15.25;;
68455;SDS011;55437;55.046;38.838;2023-01-24T09:46:18;40.33;;;14.40;;
68455;SDS011;55437;55.046;38.838;2023-01-24T09:48:52;43.42;;;15.88;;
68455;SDS011;55437;55.046;38.838;2023-01-24T09:51:25;46.05;;;14.60;;
68455;SDS011;55437;55.046;38.838;2023-01-24T09:56:24;42.88;;;15.38;;
68455;SDS011;55437;55.046;38.838;2023-01-24T10:01:40;39.83;;;15.93;;
68455;SDS011;55437;55.046;38.838;2023-01-24T10:04:13;43.20;;;14.70;;
68455;SDS011;55437;55.046;38.838;2023-01-24T10:06:43;37.67;;;14.95;;
68455;SDS011;55437;55.046;38.838;2023-01-24T10:09:32;40.33;;;14.73;;
68455;SDS011;55437;55.046;38.838;2023-01-24T10:17:54;37.35;;;15.70;;
68455;SDS011;55437;55.046;38.838;2023-01-24T10:23:33;36.40;;;13.45;;
68455;SDS011;55437;55.046;38.838;2023-01-24T10:28:54;43.22;;;14.90;;
68455;SDS011;55437;55.046;38.838;2023-01-24T10:34:00;37.40;;;15.27;;
68455;SDS011;55437;55.046;38.838;2023-01-24T10:37:00;38.70;;;14.18;;
68455;SDS011;55437;55.046;38.838;2023-01-24T10:39:31;36.50;;;14.82;;
68455;SDS011;55437;55.046;38.838;2023-01-24T10:41:56;43.78;;;14.40;;
68455;SDS011;55437;55.046;38.838;2023-01-24T10:44:26;41.28;;;15.20;;
68455;SDS011;55437;55.046;38.838;2023-01-24T10:49:29;41.35;;;15.23;;
68455;SDS011;55437;55.046;38.838;2023-01-24T10:52:16;38.53;;;14.93;;
68455;SDS011;55437;55.046;38.838;2023-01-24T10:57:53;37.78;;;14.00;;
68455;SDS011;55437;55.046;38.838;2023-01-24T11:02:51;34.90;;;13.15;;
68455;SDS011;55437;55.046;38.838;2023-01-24T11:05:19;35.63;;;12.63;;
68455;SDS011;55437;55.046;38.838;2023-01-24T11:07:47;35.83;;;13.75;;
68455;SDS011;55437;55.046;38.838;2023-01-24T11:12:49;36.97;;;13.05;;
68455;SDS011;55437;55.046;38.838;2023-01-24T11:15:20;38.65;;;12.07;;
68455;SDS011;55437;55.046;38.838;2023-01-24T11:17:52;36.08;;;12.70;;
68455;SDS011;55437;55.046;38.838;2023-01-24T11:20:23;34.05;;;13.23;;
68455;SDS011;55437;55.046;38.838;2023-01-24T11:23:01;37.78;;;12.80;;
68455;SDS011;55437;55.046;38.838;2023-01-24T11:25:53;36.85;;;12.75;;
68455;SDS011;55437;55.046;38.838;2023-01-24T11:28:28;34.58;;;12.10;;
68455;SDS011;55437;55.046;38.838;2023-01-24T11:31:00;36.03;;;13.25;;
68455;SDS011;55437;55.046;38.838;2023-01-24T11:39:51;36.50;;;12.80;;
68455;SDS011;55437;55.046;38.838;2023-01-24T11:42:31;38.35;;;12.52;;
68455;SDS011;55437;55.046;38.838;2023-01-24T12:01:11;35.13;;;12.20;;
68455;SDS011;55437;55.046;38.838;2023-01-24T12:09:22;28.88;;;11.55;;
68455;SDS011;55437;55.046;38.838;2023-01-24T12:14:51;30.13;;;12.30;;
68455;SDS011;55437;55.046;38.838;2023-01-24T12:22:44;34.13;;;12.00;;
68455;SDS011;55437;55.046;38.838;2023-01-24T12:28:00;27.15;;;10.23;;
68455;SDS011;55437;55.046;38.838;2023-01-24T12:30:34;35.47;;;13.15;;
68455;SDS011;55437;55.046;38.838;2023-01-24T12:33:13;34.20;;;13.48;;
68455;SDS011;55437;55.046;38.838;2023-01-24T12:35:48;30.10;;;11.75;;
68455;SDS011;55437;55.046;38.838;2023-01-24T12:43:58;30.13;;;11.57;;
68455;SDS011;55437;55.046;38.838;2023-01-24T12:46:38;28.48;;;10.45;;
68455;SDS011;55437;55.046;38.838;2023-01-24T12:51:43;31.85;;;12.50;;
68455;SDS011;55437;55.046;38.838;2023-01-24T12:59:17;31.33;;;11.43;;
68455;SDS011;55437;55.046;38.838;2023-01-24T13:04:44;30.27;;;11.45;;
68455;SDS011;55437;55.046;38.838;2023-01-24T13:07:57;31.83;;;11.98;;
68455;SDS011;55437;55.046;38.838;2023-01-24T13:10:38;28.65;;;11.70;;
68455;SDS011;55437;55.046;38.838;2023-01-24T13:13:08;29.55;;;11.45;;
68455;SDS011;55437;55.046;38.838;2023-01-24T13:18:28;28.83;;;11.15;;
68455;SDS011;55437;55.046;38.838;2023-01-24T13:21:09;26.45;;;10.68;;
68455;SDS011;55437;55.046;38.838;2023-01-24T13:29:15;25.25;;;10.88;;
68455;SDS011;55437;55.046;38.838;2023-01-24T13:32:12;25.38;;;9.93;;
68455;SDS011;55437;55.046;38.838;2023-01-24T13:34:47;28.83;;;9.93;;
68455;SDS011;55437;55.046;38.838;2023-01-24T13:37:20;27.30;;;10.38;;
68455;SDS011;55437;55.046;38.838;2023-01-24T13:39:58;25.20;;;10.18;;
68455;SDS011;55437;55.046;38.838;2023-01-24T13:42:47;21.77;;;9.55;;
68455;SDS011;55437;55.046;38.838;2023-01-24T13:47:52;26.95;;;8.90;;
68455;SDS011;55437;55.046;38.838;2023-01-24T13:50:21;22.75;;;9.43;;
68455;SDS011;55437;55.046;38.838;2023-01-24T13:57:45;20.42;;;8.52;;
68455;SDS011;55437;55.046;38.838;2023-01-24T14:00:14;25.10;;;9.15;;
68455;SDS011;55437;55.046;38.838;2023-01-24T14:08:15;22.77;;;9.90;;
68455;SDS011;55437;55.046;38.838;2023-01-24T14:13:52;23.63;;;9.00;;
68455;SDS011;55437;55.046;38.838;2023-01-24T14:18:49;22.65;;;9.05;;
68455;SDS011;55437;55.046;38.838;2023-01-24T14:21:27;22.67;;;10.05;;
68455;SDS011;55437;55.046;38.838;2023-01-24T14:23:58;20.30;;;8.88;;
68455;SDS011;55437;55.046;38.838;2023-01-24T14:26:41;26.38;;;10.38;;
68455;SDS011;55437;55.046;38.838;2023-01-24T14:29:12;24.30;;;10.10;;
68455;SDS011;55437;55.046;38.838;2023-01-24T14:31:42;27.52;;;10.32;;
68455;SDS011;55437;55.046;38.838;2023-01-24T14:37:03;25.30;;;9.95;;
68455;SDS011;55437;55.046;38.838;2023-01-24T14:39:35;23.13;;;9.55;;
68455;SDS011;55437;55.046;38.838;2023-01-24T14:42:01;26.63;;;9.77;;
68455;SDS011;55437;55.046;38.838;2023-01-24T14:44:33;26.90;;;10.05;;
68455;SDS011;55437;55.046;38.838;2023-01-24T14:47:02;27.85;;;10.80;;
68455;SDS011;55437;55.046;38.838;2023-01-24T14:49:33;24.65;;;10.52;;
68455;SDS011;55437;55.046;38.838;2023-01-24T14:52:02;26.17;;;10.32;;
68455;SDS011;55437;55.046;38.838;2023-01-24T14:54:51;24.98;;;10.05;;
68455;SDS011;55437;55.046;38.838;2023-01-24T14:57:19;27.38;;;10.30;;
68455;SDS011;55437;55.046;38.838;2023-01-24T14:59:57;25.35;;;10.07;;
68455;SDS011;55437;55.046;38.838;2023-01-24T15:02:35;29.30;;;10.98;;
68455;SDS011;55437;55.046;38.838;2023-01-24T15:05:01;27.90;;;11.13;;
68455;SDS011;55437;55.046;38.838;2023-01-24T15:07:30;25.73;;;10.38;;
68455;SDS011;55437;55.046;38.838;2023-01-24T15:09:57;24.92;;;9.43;;
68455;SDS011;55437;55.046;38.838;2023-01-24T15:12:33;21.27;;;10.15;;
68455;SDS011;55437;55.046;38.838;2023-01-24T15:15:01;26.65;;;11.25;;
68455;SDS011;55437;55.046;38.838;2023-01-24T15:17:29;23.25;;;9.52;;
68455;SDS011;55437;55.046;38.838;2023-01-24T15:19:57;23.55;;;9.38;;
68455;SDS011;55437;55.046;38.838;2023-01-24T15:22:31;23.73;;;11.13;;
68455;SDS011;55437;55.046;38.838;2023-01-24T15:25:01;26.95;;;10.98;;
68455;SDS011;55437;55.046;38.838;2023-01-24T15:30:25;28.30;;;9.90;;
68455;SDS011;55437;55.046;38.838;2023-01-24T15:40:47;23.98;;;9.57;;
68455;SDS011;55437;55.046;38.838;2023-01-24T15:43:19;21.30;;;9.60;;
68455;SDS011;55437;55.046;38.838;2023-01-24T15:46:13;21.13;;;9.13;;
68455;SDS011;55437;55.046;38.838;2023-01-24T15:49:00;25.02;;;10.70;;
68455;SDS011;55437;55.046;38.838;2023-01-24T15:53:58;26.23;;;10.88;;
68455;SDS011;55437;55.046;38.838;2023-01-24T15:56:24;26.02;;;9.70;;
68455;SDS011;55437;55.046;38.838;2023-01-24T15:58:51;24.20;;;9.88;;
68455;SDS011;55437;55.046;38.838;2023-01-24T16:01:17;26.45;;;10.68;;
68455;SDS011;55437;55.046;38.838;2023-01-24T16:03:43;29.88;;;11.68;;
68455;SDS011;55437;55.046;38.838;2023-01-24T16:06:09;27.02;;;10.80;;
68455;SDS011;55437;55.046;38.838;2023-01-24T16:08:35;31.92;;;12.32;;
68455;SDS011;55437;55.046;38.838;2023-01-24T16:11:00;33.78;;;12.00;;
68455;SDS011;55437;55.046;38.838;2023-01-24T16:16:12;28.50;;;11.50;;
68455;SDS011;55437;55.046;38.838;2023-01-24T16:18:42;33.63;;;13.10;;
68455;SDS011;55437;55.046;38.838;2023-01-24T16:21:08;27.83;;;11.30;;
68455;SDS011;55437;55.046;38.838;2023-01-24T16:23:35;29.90;;;11.57;;
68455;SDS011;55437;55.046;38.838;2023-01-24T16:26:00;32.10;;;11.75;;
68455;SDS011;55437;55.046;38.838;2023-01-24T16:28:27;31.77;;;11.80;;
68455;SDS011;55437;55.046;38.838;2023-01-24T16:30:54;30.40;;;12.52;;
68455;SDS011;55437;55.046;38.838;2023-01-24T16:33:25;30.33;;;11.68;;
68455;SDS011;55437;55.046;38.838;2023-01-24T16:35:51;36.05;;;12.27;;
68455;SDS011;55437;55.046;38.838;2023-01-24T16:38:17;32.67;;;11.23;;
68455;SDS011;55437;55.046;38.838;2023-01-24T16:40:43;31.70;;;12.45;;
68455;SDS011;55437;55.046;38.838;2023-01-24T16:43:21;28.98;;;11.73;;
68455;SDS011;55437;55.046;38.838;2023-01-24T16:45:49;28.83;;;10.98;;
68455;SDS011;55437;55.046;38.838;2023-01-24T16:48:16;30.05;;;11.43;;
68455;SDS011;55437;55.046;38.838;2023-01-24T16:50:43;27.95;;;11.98;;
68455;SDS011;55437;55.046;38.838;2023-01-24T16:53:10;35.13;;;13.85;;
68455;SDS011;55437;55.046;38.838;2023-01-24T16:55:36;30.55;;;12.35;;
68455;SDS011;55437;55.046;38.838;2023-01-24T16:58:08;32.75;;;13.32;;
68455;SDS011;55437;55.046;38.838;2023-01-24T17:00:37;34.05;;;14.27;;
68455;SDS011;55437;55.046;38.838;2023-01-24T17:03:03;34.40;;;13.57;;
68455;SDS011;55437;55.046;38.838;2023-01-24T17:05:33;30.30;;;11.57;;
68455;SDS011;55437;55.046;38.838;2023-01-24T17:07:58;34.53;;;13.68;;
68455;SDS011;55437;55.046;38.838;2023-01-24T17:10:25;35.08;;;14.57;;
68455;SDS011;55437;55.046;38.838;2023-01-24T17:12:52;38.40;;;12.77;;